createdAt,value
2022-07-30T00:00:39.353Z,18.92
2022-07-30T00:03:08.803Z,18.90
2022-07-30T00:05:39.035Z,18.92
2022-07-30T00:08:07.425Z,18.97
2022-07-30T00:10:36.045Z,18.98
2022-07-30T00:13:05.025Z,18.98
2022-07-30T00:15:33.996Z,18.98
2022-07-30T00:18:02.666Z,18.97
2022-07-30T00:20:31.392Z,18.96
2022-07-30T00:23:04.086Z,18.97
2022-07-30T00:25:32.622Z,18.92
2022-07-30T00:28:02.943Z,18.90
2022-07-30T00:30:31.585Z,18.91
2022-07-30T00:33:00.056Z,18.88
2022-07-30T00:35:29.043Z,18.82
2022-07-30T00:37:58.685Z,18.74
2022-07-30T00:40:28.989Z,18.65
2022-07-30T00:42:57.993Z,18.57
2022-07-30T00:45:27.896Z,18.40
2022-07-30T00:47:58.839Z,18.31
2022-07-30T00:50:27.437Z,18.23
2022-07-30T00:52:55.986Z,18.18
2022-07-30T00:55:25.041Z,18.06
2022-07-30T00:57:55.396Z,18.08
2022-07-30T01:00:24.346Z,17.99
2022-07-30T01:02:52.941Z,17.98
2022-07-30T01:05:21.620Z,18.02
2022-07-30T01:07:51.775Z,18.05
2022-07-30T01:10:20.932Z,18.04
2022-07-30T01:12:52.815Z,18.11
2022-07-30T01:15:23.277Z,18.14
2022-07-30T01:17:55.135Z,18.16
2022-07-30T01:20:28.105Z,18.16
2022-07-30T01:23:06.573Z,18.16
2022-07-30T01:25:53.112Z,18.17
2022-07-30T01:28:28.910Z,18.20
2022-07-30T01:31:00.156Z,18.22
2022-07-30T01:33:31.161Z,18.24
2022-07-30T01:36:02.624Z,18.26
2022-07-30T01:38:34.798Z,18.29
2022-07-30T01:41:08.023Z,18.29
2022-07-30T01:43:37.980Z,18.28
2022-07-30T01:46:08.812Z,18.29
2022-07-30T01:48:42.144Z,18.31
2022-07-30T01:51:14.927Z,18.38
2022-07-30T01:53:49.157Z,18.42
2022-07-30T01:56:24.882Z,18.41
2022-07-30T01:58:58.034Z,18.43
2022-07-30T02:01:28.763Z,18.43
2022-07-30T02:04:04.211Z,18.41
2022-07-30T02:06:41.492Z,18.42
2022-07-30T02:09:17.022Z,18.42
2022-07-30T02:12:08.039Z,18.41
2022-07-30T02:14:42.719Z,18.46
2022-07-30T02:17:19.054Z,18.44
2022-07-30T02:19:52.720Z,18.43
2022-07-30T02:22:25.048Z,18.42
2022-07-30T02:24:56.360Z,18.44
2022-07-30T02:27:32.355Z,18.41
2022-07-30T02:30:03.990Z,18.36
2022-07-30T02:32:38.721Z,18.34
2022-07-30T02:35:13.363Z,18.34
2022-07-30T02:37:44.464Z,18.37
2022-07-30T02:40:17.797Z,18.35
2022-07-30T02:42:51.257Z,18.34
2022-07-30T02:45:25.258Z,18.32
2022-07-30T02:47:58.148Z,18.28
2022-07-30T02:50:29.140Z,18.20
2022-07-30T02:53:00.729Z,18.10
2022-07-30T02:55:32.671Z,17.98
2022-07-30T02:58:05.770Z,17.88
2022-07-30T03:00:36.186Z,17.74
2022-07-30T03:03:07.391Z,17.67
2022-07-30T03:05:40.925Z,17.64
2022-07-30T03:08:10.241Z,17.63
2022-07-30T03:10:42.055Z,17.61
2022-07-30T03:13:13.838Z,17.56
2022-07-30T03:15:46.798Z,17.48
2022-07-30T03:18:18.230Z,17.39
2022-07-30T03:20:51.826Z,17.33
2022-07-30T03:23:22.049Z,17.30
2022-07-30T03:25:55.718Z,17.27
2022-07-30T03:28:29.309Z,17.24
2022-07-30T03:30:58.769Z,17.23
2022-07-30T03:33:38.291Z,17.23
2022-07-30T03:36:09.997Z,17.24
2022-07-30T03:38:40.783Z,17.30
2022-07-30T03:41:09.989Z,17.33
2022-07-30T03:43:41.585Z,17.36
2022-07-30T03:46:13.330Z,17.36
2022-07-30T03:48:47.122Z,17.34
2022-07-30T03:51:18.030Z,17.32
2022-07-30T03:53:48.745Z,17.32
2022-07-30T03:56:41.742Z,17.30
2022-07-30T03:59:16.641Z,17.29
2022-07-30T04:01:47.065Z,17.28
2022-07-30T04:04:27.059Z,17.28
2022-07-30T04:07:00.092Z,17.26
2022-07-30T04:09:29.273Z,17.21
2022-07-30T04:12:00.359Z,17.20
2022-07-30T04:14:42.330Z,17.21
2022-07-30T04:17:15.087Z,17.19
2022-07-30T04:19:48.331Z,17.15
2022-07-30T04:22:25.132Z,17.13
2022-07-30T04:24:55.058Z,17.13
2022-07-30T04:27:25.543Z,17.16
2022-07-30T04:29:55.989Z,17.17
2022-07-30T04:32:25.209Z,17.23
2022-07-30T04:34:55.726Z,17.19
2022-07-30T04:37:45.268Z,17.17
2022-07-30T04:40:15.882Z,17.19
2022-07-30T04:42:44.516Z,17.21
2022-07-30T04:45:16.145Z,17.21
2022-07-30T04:47:55.184Z,17.24
2022-07-30T04:50:27.897Z,17.24
2022-07-30T04:52:58.359Z,17.26
2022-07-30T04:55:30.829Z,17.27
2022-07-30T04:58:02.170Z,17.30
2022-07-30T05:00:40.997Z,17.26
2022-07-30T05:03:15.755Z,17.22
2022-07-30T05:05:57.179Z,17.25
2022-07-30T05:08:29.894Z,17.32
2022-07-30T05:11:03.579Z,17.34
2022-07-30T05:13:34.136Z,17.38
2022-07-30T05:16:08.860Z,17.41
2022-07-30T05:18:38.025Z,17.43
2022-07-30T05:21:07.449Z,17.47
2022-07-30T05:23:50.151Z,17.46
2022-07-30T05:26:37.979Z,17.44
2022-07-30T05:29:08.233Z,17.47
2022-07-30T05:31:49.006Z,17.52
2022-07-30T05:34:18.949Z,17.56
2022-07-30T05:36:47.934Z,17.59
2022-07-30T05:39:19.579Z,17.61
2022-07-30T05:41:53.983Z,17.61
2022-07-30T05:44:38.717Z,17.64
2022-07-30T05:47:09.141Z,17.73
2022-07-30T05:49:40.411Z,17.73
2022-07-30T05:52:14.710Z,17.75
2022-07-30T05:54:44.985Z,17.72
2022-07-30T05:57:13.864Z,17.73
2022-07-30T05:59:42.754Z,17.74
2022-07-30T06:02:24.466Z,17.77
2022-07-30T06:05:11.702Z,17.78
2022-07-30T06:07:42.659Z,17.79
2022-07-30T06:10:11.723Z,17.81
2022-07-30T06:12:42.056Z,17.80
2022-07-30T06:15:12.148Z,17.80
2022-07-30T06:17:45.182Z,17.81
2022-07-30T06:20:38.603Z,17.86
2022-07-30T06:23:30.764Z,17.86
2022-07-30T06:26:32.009Z,17.90
2022-07-30T06:29:00.859Z,17.97
2022-07-30T06:31:32.853Z,18.01
2022-07-30T06:34:04.140Z,18.06
2022-07-30T06:36:38.422Z,18.12
2022-07-30T06:39:13.761Z,18.22
2022-07-30T06:41:55.585Z,18.32
2022-07-30T06:44:24.080Z,18.42
2022-07-30T06:47:12.940Z,18.48
2022-07-30T06:49:45.084Z,18.54
2022-07-30T06:52:18.525Z,18.60
2022-07-30T06:54:52.197Z,18.66
2022-07-30T06:57:42.365Z,18.71
2022-07-30T07:00:28.059Z,18.74
2022-07-30T07:02:58.217Z,18.73
2022-07-30T07:05:38.033Z,18.77
2022-07-30T07:08:08.130Z,18.81
2022-07-30T07:10:43.371Z,18.86
2022-07-30T07:13:16.757Z,18.96
2022-07-30T07:15:46.668Z,18.99
2022-07-30T07:18:20.611Z,19.07
2022-07-30T07:20:56.305Z,19.15
2022-07-30T07:23:25.613Z,19.22
2022-07-30T07:26:32.746Z,19.36
2022-07-30T07:29:05.265Z,19.57
2022-07-30T07:32:06.804Z,19.70
2022-07-30T07:34:25.041Z,19.74
2022-07-30T07:36:57.205Z,19.78
2022-07-30T07:39:26.006Z,19.74
2022-07-30T07:41:54.704Z,19.72
2022-07-30T07:44:25.777Z,19.66
2022-07-30T07:46:54.629Z,19.62
2022-07-30T07:49:27.834Z,19.59
2022-07-30T07:51:58.178Z,19.62
2022-07-30T07:54:27.820Z,19.62
2022-07-30T07:56:57.314Z,19.61
2022-07-30T07:59:40.589Z,19.62
2022-07-30T08:02:21.130Z,19.62
2022-07-30T08:04:52.623Z,19.59
2022-07-30T08:07:41.190Z,19.56
2022-07-30T08:10:25.104Z,19.52
2022-07-30T08:13:49.512Z,19.45
2022-07-30T08:16:24.056Z,19.32
2022-07-30T08:19:31.993Z,19.27
2022-07-30T08:22:14.675Z,19.23
2022-07-30T08:24:45.306Z,19.19
2022-07-30T08:27:14.081Z,19.15
2022-07-30T08:29:44.316Z,19.11
2022-07-30T08:32:13.157Z,19.11
2022-07-30T08:34:43.213Z,19.10
2022-07-30T08:37:14.127Z,19.10
2022-07-30T08:39:44.816Z,19.10
2022-07-30T08:42:17.141Z,19.09
2022-07-30T08:44:46.819Z,19.07
2022-07-30T08:47:19.627Z,19.06
2022-07-30T08:50:09.249Z,19.09
2022-07-30T08:52:46.785Z,19.10
2022-07-30T08:55:17.807Z,19.07
2022-07-30T08:57:47.202Z,19.10
2022-07-30T09:00:18.582Z,19.05
2022-07-30T09:02:47.452Z,19.04
2022-07-30T09:05:16.361Z,19.02
2022-07-30T09:07:45.079Z,18.99
2022-07-30T09:10:25.144Z,18.94
2022-07-30T09:12:54.434Z,18.92
2022-07-30T09:15:23.898Z,18.87
2022-07-30T09:17:57.001Z,18.82
2022-07-30T09:20:37.615Z,18.80
2022-07-30T09:23:12.204Z,18.75
2022-07-30T09:26:12.008Z,18.75
2022-07-30T09:29:17.644Z,18.72
2022-07-30T09:32:07.094Z,18.75
2022-07-30T09:35:09.510Z,18.82
2022-07-30T09:38:06.018Z,18.86
2022-07-30T09:40:57.209Z,18.95
2022-07-30T09:43:50.615Z,19.02
2022-07-30T09:46:45.310Z,19.10
2022-07-30T09:49:18.576Z,19.15
2022-07-30T09:52:06.551Z,19.19
2022-07-30T09:54:52.436Z,19.24
2022-07-30T10:00:25.053Z,19.43
2022-07-30T10:03:21.985Z,19.49
2022-07-30T10:06:38.254Z,19.62
2022-07-30T10:09:30.706Z,19.66
2022-07-30T10:12:02.622Z,19.74
2022-07-30T10:14:42.721Z,19.78
2022-07-30T10:17:17.575Z,19.84
2022-07-30T10:20:09.863Z,19.92
2022-07-30T10:23:07.780Z,20.02
2022-07-30T10:25:48.980Z,20.15
2022-07-30T10:28:39.351Z,20.33
2022-07-30T10:31:48.334Z,20.53
2022-07-30T10:34:00.730Z,20.52
2022-07-30T10:36:31.118Z,20.53
2022-07-30T10:39:02.539Z,20.51
2022-07-30T10:41:47.643Z,20.47
2022-07-30T10:44:43.026Z,20.42
2022-07-30T10:47:16.624Z,20.39
2022-07-30T10:50:06.102Z,20.36
2022-07-30T10:52:46.723Z,20.29
2022-07-30T10:55:16.345Z,20.26
2022-07-30T10:58:06.389Z,20.22
2022-07-30T11:00:58.710Z,20.21
2022-07-30T11:03:44.546Z,20.14
2022-07-30T11:06:29.510Z,20.12
2022-07-30T11:08:58.509Z,20.10
2022-07-30T11:12:01.497Z,20.10
2022-07-30T11:15:06.752Z,20.09
2022-07-30T11:18:02.528Z,20.11
2022-07-30T11:20:32.687Z,20.16
2022-07-30T11:23:41.341Z,20.22
2022-07-30T11:26:14.114Z,20.27
2022-07-30T11:28:49.422Z,20.36
2022-07-30T11:31:55.006Z,20.47
2022-07-30T11:34:31.132Z,20.60
2022-07-30T11:37:19.172Z,20.77
2022-07-30T11:40:15.307Z,20.87
2022-07-30T11:42:45.359Z,20.97
2022-07-30T11:45:33.996Z,21.06
2022-07-30T11:48:02.696Z,21.26
2022-07-30T11:50:34.050Z,21.44
2022-07-30T11:53:06.283Z,21.51
2022-07-30T11:55:39.067Z,21.54
2022-07-30T11:58:09.872Z,21.54
2022-07-30T12:00:41.590Z,21.65
2022-07-30T12:03:12.533Z,21.79
2022-07-30T12:05:41.661Z,21.96
2022-07-30T12:08:35.263Z,22.18
2022-07-30T12:11:02.713Z,22.52
2022-07-30T12:13:44.952Z,22.74
2022-07-30T12:16:17.967Z,22.77
2022-07-30T12:18:48.518Z,22.77
2022-07-30T12:21:18.055Z,22.75
2022-07-30T12:23:56.817Z,22.70
2022-07-30T12:26:29.818Z,22.58
2022-07-30T12:29:02.092Z,22.44
2022-07-30T12:31:31.313Z,22.32
2022-07-30T12:34:01.447Z,22.21
2022-07-30T12:36:33.074Z,22.09
2022-07-30T12:39:02.972Z,21.98
2022-07-30T12:41:47.374Z,21.97
2022-07-30T12:44:42.346Z,22.02
2022-07-30T12:47:22.197Z,22.04
2022-07-30T12:49:53.355Z,22.09
2022-07-30T12:52:27.959Z,22.26
2022-07-30T12:55:03.726Z,22.26
2022-07-30T12:57:55.090Z,22.45
2022-07-30T13:00:25.495Z,22.68
2022-07-30T13:02:55.364Z,22.91
2022-07-30T13:05:45.773Z,23.03
2022-07-30T13:08:15.213Z,22.99
2022-07-30T13:10:59.213Z,22.97
2022-07-30T13:13:31.217Z,22.95
2022-07-30T13:16:02.035Z,22.88
2022-07-30T13:18:32.779Z,22.69
2022-07-30T13:21:03.646Z,22.53
2022-07-30T13:23:32.677Z,22.42
2022-07-30T13:26:01.857Z,22.31
2022-07-30T13:28:34.973Z,22.20
2022-07-30T13:31:04.301Z,22.09
2022-07-30T13:33:33.272Z,22.02
2022-07-30T13:36:02.675Z,21.97
2022-07-30T13:38:32.264Z,21.91
2022-07-30T13:41:02.980Z,21.82
2022-07-30T13:43:33.925Z,21.75
2022-07-30T13:46:05.416Z,21.73
2022-07-30T13:48:35.937Z,21.71
2022-07-30T13:51:07.978Z,21.70
2022-07-30T13:53:37.295Z,21.66
2022-07-30T13:56:12.451Z,21.60
2022-07-30T13:58:43.750Z,21.63
2022-07-30T14:01:15.826Z,21.58
2022-07-30T14:03:50.838Z,21.59
2022-07-30T14:06:19.780Z,21.61
2022-07-30T14:08:49.086Z,21.68
2022-07-30T14:11:18.167Z,21.76
2022-07-30T14:13:48.343Z,21.77
2022-07-30T14:16:43.637Z,21.83
2022-07-30T14:19:09.316Z,21.91
2022-07-30T14:21:52.800Z,21.89
2022-07-30T14:24:22.299Z,21.88
2022-07-30T14:26:57.769Z,21.87
2022-07-30T14:29:29.306Z,21.85
2022-07-30T14:31:59.010Z,21.84
2022-07-30T14:34:29.134Z,21.81
2022-07-30T14:36:58.054Z,21.75
2022-07-30T14:39:26.951Z,21.73
2022-07-30T14:41:56.243Z,21.69
2022-07-30T14:44:25.239Z,21.69
2022-07-30T14:46:56.127Z,21.78
2022-07-30T14:49:25.380Z,21.76
2022-07-30T14:51:54.800Z,21.76
2022-07-30T14:54:23.868Z,21.75
2022-07-30T14:56:58.008Z,21.80
2022-07-30T14:59:31.438Z,21.81
2022-07-30T15:02:02.393Z,21.78
2022-07-30T15:04:31.937Z,21.76
2022-07-30T15:07:01.345Z,21.77
2022-07-30T15:09:30.303Z,21.75
2022-07-30T15:12:09.423Z,21.71
2022-07-30T15:14:40.263Z,21.72
2022-07-30T15:17:11.846Z,21.73
2022-07-30T15:19:49.343Z,21.79
2022-07-30T15:22:20.156Z,21.79
2022-07-30T15:24:49.667Z,21.80
2022-07-30T15:27:22.436Z,21.79
2022-07-30T15:29:57.425Z,21.81
2022-07-30T15:32:28.263Z,21.76
2022-07-30T15:34:58.958Z,21.74
2022-07-30T15:37:27.694Z,21.69
2022-07-30T15:39:56.570Z,21.66
2022-07-30T15:42:27.415Z,21.67
2022-07-30T15:45:16.106Z,21.68
2022-07-30T15:47:48.353Z,21.63
2022-07-30T15:50:18.064Z,21.64
2022-07-30T15:52:49.427Z,21.68
2022-07-30T15:55:18.216Z,21.72
2022-07-30T15:57:48.620Z,21.76
2022-07-30T16:00:17.950Z,21.78
2022-07-30T16:02:50.912Z,21.79
2022-07-30T16:05:19.760Z,21.73
2022-07-30T16:07:48.868Z,21.68
2022-07-30T16:10:18.013Z,21.65
2022-07-30T16:12:47.068Z,21.63
2022-07-30T16:15:16.993Z,21.63
2022-07-30T16:17:47.827Z,21.59
2022-07-30T16:20:16.977Z,21.58
2022-07-30T16:22:45.724Z,21.55
2022-07-30T16:25:15.112Z,21.52
2022-07-30T16:27:44.199Z,21.51
2022-07-30T16:30:14.309Z,21.49
2022-07-30T16:32:43.923Z,21.43
2022-07-30T16:35:14.592Z,21.43
2022-07-30T16:37:44.172Z,21.42
2022-07-30T16:40:14.257Z,21.38
2022-07-30T16:42:43.396Z,21.41
2022-07-30T16:45:13.378Z,21.36
2022-07-30T16:47:43.242Z,21.25
2022-07-30T16:50:15.157Z,21.23
2022-07-30T16:52:44.188Z,21.19
2022-07-30T16:55:13.366Z,21.19
2022-07-30T16:57:42.876Z,21.12
2022-07-30T17:00:14.938Z,21.01
2022-07-30T17:02:44.372Z,20.88
2022-07-30T17:05:14.960Z,20.77
2022-07-30T17:07:44.155Z,20.66
2022-07-30T17:10:13.865Z,20.57
2022-07-30T17:12:52.591Z,20.52
2022-07-30T17:15:31.849Z,20.51
2022-07-30T17:18:02.749Z,20.49
2022-07-30T17:20:34.457Z,20.45
2022-07-30T17:23:04.049Z,20.41
2022-07-30T17:25:33.493Z,20.40
2022-07-30T17:28:02.405Z,20.34
2022-07-30T17:30:32.122Z,20.30
2022-07-30T17:33:01.404Z,20.27
2022-07-30T17:35:30.834Z,20.28
2022-07-30T17:38:05.060Z,20.29
2022-07-30T17:40:34.295Z,20.29
2022-07-30T17:43:06.193Z,20.29
2022-07-30T17:45:39.552Z,20.29
2022-07-30T17:48:09.467Z,20.29
2022-07-30T17:50:38.690Z,20.24
2022-07-30T17:53:10.138Z,20.21
2022-07-30T17:55:39.470Z,20.21
2022-07-30T17:58:09.733Z,20.17
2022-07-30T18:00:38.923Z,20.19
2022-07-30T18:03:08.241Z,20.13
2022-07-30T18:05:39.126Z,20.06
2022-07-30T18:08:12.809Z,20.01
2022-07-30T18:10:42.195Z,19.96
2022-07-30T18:13:26.035Z,19.92
2022-07-30T18:15:57.243Z,19.87
2022-07-30T18:18:26.295Z,19.86
2022-07-30T18:20:55.282Z,19.80
2022-07-30T18:23:25.953Z,19.74
2022-07-30T18:26:03.984Z,19.67
2022-07-30T18:28:33.591Z,19.64
2022-07-30T18:31:02.466Z,19.63
2022-07-30T18:33:31.245Z,19.61
2022-07-30T18:36:08.217Z,19.61
2022-07-30T18:38:43.368Z,19.60
2022-07-30T18:41:14.235Z,19.55
2022-07-30T18:43:47.480Z,19.52
2022-07-30T18:46:17.702Z,19.50
2022-07-30T18:48:48.798Z,19.46
2022-07-30T18:51:18.858Z,19.40
2022-07-30T18:53:50.005Z,19.34
2022-07-30T18:56:19.633Z,19.27
2022-07-30T18:58:48.951Z,19.27
2022-07-30T19:01:19.810Z,19.31
2022-07-30T19:03:48.792Z,19.33
2022-07-30T19:06:17.713Z,19.35
2022-07-30T19:08:52.042Z,19.33
2022-07-30T19:11:20.943Z,19.31
2022-07-30T19:13:50.469Z,19.30
2022-07-30T19:16:20.843Z,19.26
2022-07-30T19:18:49.695Z,19.25
2022-07-30T19:21:18.631Z,19.24
2022-07-30T19:23:49.669Z,19.24
2022-07-30T19:26:20.091Z,19.22
2022-07-30T19:28:48.945Z,19.23
2022-07-30T19:31:17.715Z,19.20
2022-07-30T19:33:46.652Z,19.20
2022-07-30T19:36:19.202Z,19.20
2022-07-30T19:38:49.104Z,19.20
2022-07-30T19:41:19.748Z,19.18
2022-07-30T19:43:57.644Z,19.17
2022-07-30T19:46:28.046Z,19.17
2022-07-30T19:48:59.617Z,19.17
2022-07-30T19:52:22.765Z,19.17
2022-07-30T19:54:19.038Z,19.17
2022-07-30T19:56:50.539Z,19.18
2022-07-30T19:59:45.774Z,19.19
2022-07-30T20:02:09.187Z,19.16
2022-07-30T20:04:41.617Z,19.16
2022-07-30T20:07:13.499Z,19.16
2022-07-30T20:09:42.993Z,19.15
2022-07-30T20:12:15.955Z,19.15
2022-07-30T20:14:46.398Z,19.15
2022-07-30T20:17:19.009Z,19.14
2022-07-30T20:19:49.424Z,19.16
2022-07-30T20:22:21.809Z,19.14
2022-07-30T20:24:56.578Z,19.10
2022-07-30T20:27:36.188Z,19.11
2022-07-30T20:30:08.146Z,19.09
2022-07-30T20:32:37.709Z,19.07
2022-07-30T20:35:11.151Z,19.04
2022-07-30T20:37:55.435Z,19.04
2022-07-30T20:40:56.630Z,19.05
2022-07-30T20:43:27.948Z,19.02
2022-07-30T20:45:57.768Z,18.99
2022-07-30T20:48:31.573Z,18.96
2022-07-30T20:51:02.479Z,18.94
2022-07-30T20:53:36.962Z,18.95
2022-07-30T20:56:07.326Z,18.96
2022-07-30T20:58:46.087Z,18.95
2022-07-30T21:01:18.369Z,18.90
2022-07-30T21:03:48.947Z,18.88
2022-07-30T21:06:18.311Z,18.91
2022-07-30T21:08:47.738Z,18.87
2022-07-30T21:11:16.432Z,18.89
2022-07-30T21:13:47.211Z,18.87
2022-07-30T21:16:16.831Z,18.93
2022-07-30T21:21:47.995Z,18.94
2022-07-30T21:27:09.811Z,18.93
2022-07-30T21:29:43.868Z,19.00
2022-07-30T21:32:13.065Z,18.89
2022-07-30T21:34:42.676Z,18.92
2022-07-30T21:37:15.750Z,18.90
2022-07-30T21:39:44.745Z,18.87
2022-07-30T21:42:14.098Z,18.90
2022-07-30T21:44:44.197Z,18.90
2022-07-30T21:47:15.368Z,18.94
2022-07-30T21:49:45.077Z,18.94
2022-07-30T21:52:15.802Z,18.89
2022-07-30T21:54:50.408Z,18.89
2022-07-30T21:57:23.077Z,18.91
2022-07-30T21:59:55.110Z,18.88
2022-07-30T22:02:25.377Z,18.90
2022-07-30T22:04:56.646Z,18.97
2022-07-30T22:07:28.042Z,19.02
2022-07-30T22:09:57.348Z,19.03
2022-07-30T22:12:29.034Z,18.91
2022-07-30T22:15:02.490Z,18.88
2022-07-30T22:17:37.415Z,18.86
2022-07-30T22:20:27.781Z,18.84
2022-07-30T22:22:57.227Z,18.82
2022-07-30T22:25:43.646Z,18.83
2022-07-30T22:28:15.066Z,18.81
2022-07-30T22:30:47.788Z,18.83
2022-07-30T22:33:22.857Z,18.85
2022-07-30T22:35:56.719Z,18.88
2022-07-30T22:38:27.458Z,18.90
2022-07-30T22:40:57.154Z,18.91
2022-07-30T22:43:33.285Z,19.11
2022-07-30T22:46:14.961Z,19.13
2022-07-30T22:48:59.816Z,19.23
2022-07-30T22:54:21.387Z,18.98
2022-07-30T22:56:54.887Z,18.93
2022-07-30T22:59:55.862Z,18.92
2022-07-30T23:02:17.859Z,18.97
2022-07-30T23:04:46.797Z,19.00
2022-07-30T23:07:18.894Z,19.02
2022-07-30T23:09:51.558Z,19.02
2022-07-30T23:12:23.716Z,19.19
2022-07-30T23:12:27.126Z,18.94
2022-07-30T23:12:27.228Z,18.92
2022-07-30T23:12:30.621Z,19.10
2022-07-30T23:14:57.631Z,19.28
2022-07-30T23:17:38.814Z,19.25
2022-07-30T23:20:11.280Z,19.18
2022-07-30T23:22:40.224Z,19.25
2022-07-30T23:25:11.060Z,19.21
2022-07-30T23:27:40.650Z,19.19
2022-07-30T23:30:12.925Z,19.20
2022-07-30T23:32:43.496Z,19.22
2022-07-30T23:35:20.595Z,19.25
2022-07-30T23:37:50.561Z,19.29
2022-07-30T23:40:20.105Z,19.45
2022-07-30T23:42:51.096Z,19.48
2022-07-30T23:45:20.450Z,19.36
2022-07-30T23:48:01.171Z,19.50
2022-07-30T23:50:31.252Z,19.33
2022-07-30T23:53:00.618Z,19.39
2022-07-30T23:55:34.570Z,19.39
2022-07-30T23:58:04.130Z,19.39
